createdAt,value
2022-10-30T00:03:05.350Z,9.90
2022-10-30T00:08:25.948Z,9.45
2022-10-30T00:13:46.743Z,10.63
2022-10-30T00:19:07.710Z,10.48
2022-10-30T00:24:29.290Z,12.02
2022-10-30T00:29:49.732Z,11.40
2022-10-30T00:35:11.265Z,10.98
2022-10-30T00:40:33.123Z,8.80
2022-10-30T00:45:54.122Z,9.90
2022-10-30T00:51:15.268Z,11.43
2022-10-30T00:56:37.054Z,15.98
2022-10-30T01:01:59.032Z,10.23
2022-10-30T01:07:20.064Z,11.68
2022-10-30T01:12:42.382Z,10.02
2022-10-30T01:18:29.339Z,11.45
2022-10-30T01:24:04.139Z,10.43
2022-10-30T01:29:37.169Z,14.50
2022-10-30T01:34:59.663Z,10.80
2022-10-30T01:40:21.422Z,15.40
2022-10-30T01:45:51.245Z,15.57
2022-10-30T01:57:07.763Z,15.00
2022-10-30T02:02:32.947Z,17.80
2022-10-30T02:07:53.791Z,11.18
2022-10-30T02:13:14.860Z,17.70
2022-10-30T02:18:35.799Z,14.35
2022-10-30T02:23:57.432Z,20.92
2022-10-30T02:29:20.823Z,16.25
2022-10-30T02:34:43.003Z,17.92
2022-10-30T02:40:04.499Z,14.00
2022-10-30T02:45:25.478Z,22.75
2022-10-30T02:50:46.174Z,11.18
2022-10-30T02:56:12.860Z,17.15
2022-10-30T03:01:35.195Z,14.13
2022-10-30T03:06:56.270Z,12.18
2022-10-30T03:12:17.287Z,15.45
2022-10-30T03:17:39.065Z,14.73
2022-10-30T03:23:01.436Z,14.60
2022-10-30T03:28:23.485Z,11.38
2022-10-30T03:33:44.722Z,14.85
2022-10-30T03:39:06.276Z,17.73
2022-10-30T03:44:27.546Z,14.93
2022-10-30T03:49:49.508Z,16.95
2022-10-30T03:55:13.902Z,11.27
2022-10-30T04:00:36.975Z,14.88
2022-10-30T04:05:58.559Z,15.57
2022-10-30T04:11:19.329Z,12.88
2022-10-30T04:16:39.868Z,16.45
2022-10-30T04:22:00.862Z,13.07
2022-10-30T04:27:21.553Z,16.08
2022-10-30T04:32:47.662Z,17.77
2022-10-30T04:38:11.454Z,14.68
2022-10-30T04:43:32.330Z,15.65
2022-10-30T04:48:53.238Z,16.85
2022-10-30T04:54:14.188Z,13.63
2022-10-30T04:59:35.294Z,19.30
2022-10-30T05:04:55.947Z,15.07
2022-10-30T05:10:18.416Z,15.23
2022-10-30T05:15:39.568Z,12.43
2022-10-30T05:21:00.194Z,14.85
2022-10-30T05:26:21.062Z,12.93
2022-10-30T05:31:41.832Z,14.18
2022-10-30T05:42:32.392Z,11.15
2022-10-30T05:48:02.783Z,12.15
2022-10-30T05:53:27.953Z,12.75
2022-10-30T05:58:50.493Z,13.38
2022-10-30T06:04:11.543Z,26.75
2022-10-30T06:09:32.279Z,18.77
2022-10-30T06:14:56.101Z,12.68
2022-10-30T06:20:18.767Z,20.30
2022-10-30T06:26:14.184Z,13.40
2022-10-30T06:31:43.467Z,11.40
2022-10-30T06:37:04.391Z,12.70
2022-10-30T06:42:25.413Z,14.32
2022-10-30T06:48:06.458Z,15.80
2022-10-30T06:53:33.607Z,13.75
2022-10-30T06:59:13.134Z,14.40
2022-10-30T07:04:46.747Z,14.43
2022-10-30T07:10:08.096Z,14.00
2022-10-30T07:15:59.263Z,12.18
2022-10-30T07:21:26.919Z,12.35
2022-10-30T07:26:47.764Z,17.88
2022-10-30T07:32:28.690Z,13.38
2022-10-30T07:38:05.233Z,13.43
2022-10-30T07:43:40.888Z,22.73
2022-10-30T07:49:20.590Z,11.45
2022-10-30T07:54:49.847Z,13.38
2022-10-30T08:00:29.409Z,11.02
2022-10-30T08:06:10.451Z,7.25
2022-10-30T08:11:32.739Z,8.15
2022-10-30T08:16:53.684Z,11.48
2022-10-30T08:22:15.188Z,10.95
2022-10-30T08:27:39.609Z,8.05
2022-10-30T08:33:10.125Z,12.15
2022-10-30T08:38:49.267Z,9.93
2022-10-30T08:44:34.675Z,7.82
2022-10-30T08:50:14.993Z,9.55
2022-10-30T08:55:36.057Z,17.25
2022-10-30T09:01:01.629Z,9.02
2022-10-30T09:06:49.140Z,8.07
2022-10-30T09:12:28.687Z,11.65
2022-10-30T09:17:56.764Z,9.20
2022-10-30T09:23:17.759Z,13.38
2022-10-30T09:28:42.223Z,10.23
2022-10-30T09:34:23.369Z,9.10
2022-10-30T09:40:57.782Z,8.50
2022-10-30T09:46:37.715Z,12.90
2022-10-30T09:52:21.738Z,8.43
2022-10-30T09:57:55.014Z,12.10
2022-10-30T10:03:25.551Z,7.60
2022-10-30T10:09:15.001Z,15.52
2022-10-30T10:15:11.859Z,7.72
2022-10-30T10:20:40.393Z,10.15
2022-10-30T10:26:09.168Z,8.68
2022-10-30T10:31:41.905Z,7.20
2022-10-30T10:37:46.892Z,6.57
2022-10-30T10:43:22.980Z,7.53
2022-10-30T10:49:01.974Z,8.75
2022-10-30T10:54:50.785Z,11.00
2022-10-30T11:00:14.623Z,5.95
2022-10-30T11:05:48.155Z,11.32
2022-10-30T11:11:08.849Z,9.57
2022-10-30T11:16:55.374Z,8.20
2022-10-30T11:22:31.651Z,8.82
2022-10-30T11:28:01.147Z,9.98
2022-10-30T11:33:23.156Z,7.30
2022-10-30T11:38:44.094Z,11.05
2022-10-30T11:44:06.613Z,8.70
2022-10-30T11:49:40.425Z,11.63
2022-10-30T11:55:10.587Z,10.18
2022-10-30T12:00:34.737Z,11.75
2022-10-30T12:06:16.350Z,11.55
2022-10-30T12:11:39.676Z,12.32
2022-10-30T12:17:00.282Z,9.27
2022-10-30T12:22:27.529Z,7.20
2022-10-30T12:27:48.298Z,10.32
2022-10-30T12:33:16.332Z,8.45
2022-10-30T12:38:58.675Z,11.63
2022-10-30T12:44:47.466Z,9.75
2022-10-30T12:50:20.610Z,10.68
2022-10-30T12:55:46.337Z,10.65
2022-10-30T13:01:13.240Z,7.20
2022-10-30T13:06:41.457Z,7.47
2022-10-30T13:12:33.761Z,7.75
2022-10-30T13:17:59.001Z,14.43
2022-10-30T13:23:31.530Z,5.72
2022-10-30T13:29:03.754Z,7.80
2022-10-30T13:34:41.238Z,11.45
2022-10-30T13:40:40.681Z,8.90
2022-10-30T13:46:04.332Z,7.00
2022-10-30T13:51:52.730Z,9.45
2022-10-30T13:57:41.693Z,13.45
2022-10-30T14:03:24.396Z,15.10
2022-10-30T14:08:57.377Z,13.60
2022-10-30T14:14:24.332Z,11.20
2022-10-30T14:20:14.383Z,17.38
2022-10-30T14:25:35.811Z,17.02
2022-10-30T14:31:13.365Z,10.60
2022-10-30T14:36:34.006Z,11.38
2022-10-30T14:42:16.240Z,9.88
2022-10-30T14:48:16.113Z,11.20
2022-10-30T14:54:01.381Z,13.27
2022-10-30T14:59:33.619Z,11.65
2022-10-30T15:05:23.759Z,11.88
2022-10-30T15:11:02.794Z,8.95
2022-10-30T15:16:24.613Z,9.82
2022-10-30T15:21:50.133Z,11.32
2022-10-30T15:27:19.455Z,12.65
2022-10-30T15:32:41.273Z,13.07
2022-10-30T15:38:07.378Z,13.02
2022-10-30T15:43:35.733Z,15.35
2022-10-30T15:48:56.646Z,16.40
2022-10-30T15:54:21.361Z,10.18
2022-10-30T15:59:51.936Z,13.77
2022-10-30T16:05:21.601Z,11.57
2022-10-30T16:16:05.653Z,13.25
2022-10-30T16:21:31.212Z,13.73
2022-10-30T16:27:15.875Z,14.15
2022-10-30T16:32:36.821Z,15.55
2022-10-30T16:37:57.969Z,16.02
2022-10-30T16:43:26.730Z,23.48
2022-10-30T16:48:58.755Z,13.68
2022-10-30T16:54:23.663Z,39.20
2022-10-30T16:59:48.436Z,47.10
2022-10-30T17:05:23.067Z,30.35
2022-10-30T17:11:22.307Z,29.45
2022-10-30T17:16:53.081Z,18.73
2022-10-30T17:22:18.158Z,21.90
2022-10-30T17:27:57.713Z,25.27
2022-10-30T17:38:44.618Z,26.38
2022-10-30T17:44:06.511Z,22.67
2022-10-30T17:49:32.393Z,22.23
2022-10-30T17:54:53.604Z,22.08
2022-10-30T18:00:14.737Z,19.98
2022-10-30T18:05:36.401Z,24.98
2022-10-30T18:10:57.005Z,24.00
2022-10-30T18:16:19.109Z,23.10
2022-10-30T18:21:41.020Z,25.38
2022-10-30T18:27:01.959Z,27.38
2022-10-30T18:32:22.594Z,25.55
2022-10-30T18:37:43.305Z,21.45
2022-10-30T18:43:04.107Z,17.98
2022-10-30T18:48:24.899Z,16.45
2022-10-30T18:53:52.087Z,18.55
2022-10-30T18:59:12.961Z,17.42
2022-10-30T19:04:33.713Z,17.70
2022-10-30T19:09:55.893Z,20.00
2022-10-30T19:15:26.381Z,20.23
2022-10-30T19:21:05.132Z,18.33
2022-10-30T19:26:28.009Z,23.75
2022-10-30T19:31:49.327Z,17.77
2022-10-30T19:37:10.257Z,19.55
2022-10-30T19:42:31.057Z,17.35
2022-10-30T19:47:57.005Z,18.27
2022-10-30T19:53:17.730Z,22.85
2022-10-30T19:58:39.739Z,22.30
2022-10-30T20:04:00.232Z,24.65
2022-10-30T20:09:22.543Z,26.27
2022-10-30T20:14:43.206Z,27.35
2022-10-30T20:20:04.132Z,23.33
2022-10-30T20:25:26.723Z,23.13
2022-10-30T20:30:47.973Z,20.85
2022-10-30T20:36:12.082Z,24.50
2022-10-30T20:41:33.345Z,17.02
2022-10-30T20:46:53.880Z,20.67
2022-10-30T20:52:14.780Z,25.35
2022-10-30T20:57:35.361Z,20.63
2022-10-30T21:02:56.158Z,24.90
2022-10-30T21:08:16.894Z,21.95
2022-10-30T21:13:39.447Z,22.88
2022-10-30T21:19:00.175Z,23.20
2022-10-30T21:24:20.907Z,18.75
2022-10-30T21:29:41.583Z,25.50
2022-10-30T21:35:02.373Z,25.95
2022-10-30T21:40:22.999Z,28.33
2022-10-30T21:45:43.621Z,24.83
2022-10-30T21:51:12.740Z,31.10
2022-10-30T21:56:36.215Z,32.58
2022-10-30T22:01:57.114Z,31.05
2022-10-30T22:07:18.578Z,26.83
2022-10-30T22:12:39.411Z,25.48
2022-10-30T22:18:00.320Z,27.80
2022-10-30T22:23:21.053Z,25.90
2022-10-30T22:28:42.396Z,26.08
2022-10-30T22:34:03.160Z,22.40
2022-10-30T22:39:23.859Z,28.35
2022-10-30T22:44:44.527Z,22.35
2022-10-30T22:50:05.643Z,22.42
2022-10-30T22:55:28.314Z,25.23
2022-10-30T23:00:48.908Z,22.27
2022-10-30T23:06:09.777Z,19.73
2022-10-30T23:11:31.147Z,25.20
2022-10-30T23:16:51.875Z,20.95
2022-10-30T23:22:12.784Z,24.15
2022-10-30T23:27:33.409Z,21.77
2022-10-30T23:32:54.494Z,22.40
2022-10-30T23:38:15.131Z,22.25
2022-10-30T23:43:35.888Z,26.02
2022-10-30T23:48:57.132Z,24.75
2022-10-30T23:54:18.125Z,24.65
2022-10-30T23:59:38.571Z,19.25
